IAW612 OEMA-ORMM
Flight info
| Callsign | IAW612 |
|---|---|
| Flight time | 1h 42m |
| Altitude | 39000 |
| Route | ALTEP B544 ASH/N0482F410 B411 RUKAM M703 GADSI |
| Aircraft | B772/H-SDE2E3FGHIJ5LORVWXY/LB1D1 |
Departure
| Time | 2026-05-08 11:24 |
|---|---|
| Airport | Prince Mohammad Bin Abdulaziz Airport (OEMA) |
Arrival
| Time | 2026-05-08 13:06 |
|---|---|
| Airport | Basra International Airport (ORMM) |
| Time | Latitude | Longitude | Altitude | Speed | Heading |
|---|---|---|---|---|---|
| 2026-05-08 11:01 | 24.55894 | 39.71360 | 2074 ft | 0 kts | 259° |
| 2026-05-08 11:10 | 24.55899 | 39.71381 | 2073 ft | 4 kts | 258° |
| 2026-05-08 11:10 | 24.55904 | 39.71407 | 2072 ft | 4 kts | 267° |
| 2026-05-08 11:11 | 24.55900 | 39.71434 | 2070 ft | 4 kts | 304° |
| 2026-05-08 11:11 | 24.55881 | 39.71451 | 2074 ft | 4 kts | 348° |
| 2026-05-08 11:11 | 24.55854 | 39.71453 | 2074 ft | 4 kts | 359° |
| 2026-05-08 11:11 | 24.55836 | 39.71454 | 2073 ft | 0 kts | 349° |
| 2026-05-08 11:15 | 24.55838 | 39.71454 | 2072 ft | 3 kts | 349° |
| 2026-05-08 11:15 | 24.55865 | 39.71448 | 2074 ft | 5 kts | 349° |
| 2026-05-08 11:15 | 24.55906 | 39.71440 | 2074 ft | 9 kts | 349° |
| 2026-05-08 11:15 | 24.55968 | 39.71427 | 2070 ft | 9 kts | 349° |
| 2026-05-08 11:16 | 24.56029 | 39.71414 | 2070 ft | 9 kts | 349° |
| 2026-05-08 11:16 | 24.56071 | 39.71369 | 2070 ft | 9 kts | 281° |
| 2026-05-08 11:16 | 24.56061 | 39.71301 | 2074 ft | 10 kts | 259° |
| 2026-05-08 11:16 | 24.56045 | 39.71206 | 2070 ft | 13 kts | 259° |
| 2026-05-08 11:17 | 24.56028 | 39.71109 | 2070 ft | 13 kts | 259° |
| 2026-05-08 11:17 | 24.56011 | 39.71012 | 2072 ft | 13 kts | 259° |
| 2026-05-08 11:17 | 24.55995 | 39.70927 | 2073 ft | 8 kts | 258° |
| 2026-05-08 11:17 | 24.55964 | 39.70888 | 2074 ft | 7 kts | 199° |
| 2026-05-08 11:18 | 24.55899 | 39.70896 | 2072 ft | 12 kts | 168° |
| 2026-05-08 11:18 | 24.55816 | 39.70914 | 2070 ft | 14 kts | 169° |
| 2026-05-08 11:18 | 24.55712 | 39.70936 | 2070 ft | 18 kts | 169° |
| 2026-05-08 11:18 | 24.55592 | 39.70961 | 2070 ft | 18 kts | 169° |
| 2026-05-08 11:19 | 24.55465 | 39.70988 | 2070 ft | 20 kts | 169° |
| 2026-05-08 11:19 | 24.55327 | 39.71017 | 2074 ft | 20 kts | 169° |
| 2026-05-08 11:19 | 24.55189 | 39.71047 | 2072 ft | 20 kts | 169° |
| 2026-05-08 11:19 | 24.55047 | 39.71076 | 2071 ft | 22 kts | 169° |
| 2026-05-08 11:20 | 24.54885 | 39.71109 | 2069 ft | 24 kts | 169° |
| 2026-05-08 11:20 | 24.54718 | 39.71146 | 2071 ft | 24 kts | 169° |
| 2026-05-08 11:20 | 24.54551 | 39.71182 | 2074 ft | 24 kts | 169° |
| 2026-05-08 11:20 | 24.54385 | 39.71218 | 2069 ft | 24 kts | 169° |
| 2026-05-08 11:21 | 24.54218 | 39.71253 | 2072 ft | 24 kts | 169° |
| 2026-05-08 11:21 | 24.54057 | 39.71287 | 2073 ft | 21 kts | 169° |
| 2026-05-08 11:21 | 24.53930 | 39.71314 | 2074 ft | 16 kts | 169° |
| 2026-05-08 11:21 | 24.53851 | 39.71314 | 2072 ft | 9 kts | 211° |
| 2026-05-08 11:22 | 24.53832 | 39.71283 | 2071 ft | 2 kts | 252° |
| 2026-05-08 11:22 | 24.53831 | 39.71280 | 2071 ft | 0 kts | 256° |
| 2026-05-08 11:22 | 24.53824 | 39.71249 | 2073 ft | 9 kts | 258° |
| 2026-05-08 11:22 | 24.53815 | 39.71191 | 2071 ft | 7 kts | 265° |
| 2026-05-08 11:23 | 24.53840 | 39.71147 | 2070 ft | 10 kts | 328° |
| 2026-05-08 11:23 | 24.54024 | 39.71102 | 2073 ft | 54 kts | 349° |
| 2026-05-08 11:23 | 24.54665 | 39.70968 | 2074 ft | 134 kts | 349° |
| 2026-05-08 11:23 | 24.55757 | 39.70741 | 2485 ft | 168 kts | 349° |
| 2026-05-08 11:24 | 24.56923 | 39.70496 | 3468 ft | 174 kts | 346° |
| 2026-05-08 11:24 | 24.58091 | 39.70198 | 4403 ft | 168 kts | 342° |
| 2026-05-08 11:24 | 24.59271 | 39.69929 | 4873 ft | 183 kts | 347° |
| 2026-05-08 11:24 | 24.60601 | 39.69658 | 5224 ft | 206 kts | 347° |
| 2026-05-08 11:25 | 24.62066 | 39.69357 | 5676 ft | 223 kts | 348° |
| 2026-05-08 11:25 | 24.63659 | 39.69032 | 6036 ft | 243 kts | 347° |
| 2026-05-08 11:25 | 24.65380 | 39.68677 | 6506 ft | 261 kts | 348° |
| 2026-05-08 11:25 | 24.67231 | 39.68299 | 7003 ft | 278 kts | 347° |
| 2026-05-08 11:26 | 24.69173 | 39.67890 | 7683 ft | 289 kts | 346° |
| 2026-05-08 11:26 | 24.71177 | 39.67460 | 8467 ft | 297 kts | 346° |
| 2026-05-08 11:26 | 24.73218 | 39.67020 | 9301 ft | 298 kts | 346° |
| 2026-05-08 11:26 | 24.75280 | 39.66578 | 9865 ft | 304 kts | 345° |
| 2026-05-08 11:27 | 24.77348 | 39.66136 | 9977 ft | 305 kts | 345° |
| 2026-05-08 11:27 | 24.79514 | 39.65670 | 10129 ft | 333 kts | 345° |
| 2026-05-08 11:27 | 24.81864 | 39.65164 | 10746 ft | 352 kts | 345° |
| 2026-05-08 11:27 | 24.84261 | 39.64656 | 11742 ft | 360 kts | 345° |
| 2026-05-08 11:28 | 24.86727 | 39.64116 | 12892 ft | 362 kts | 343° |
| 2026-05-08 11:28 | 24.89216 | 39.63506 | 13955 ft | 369 kts | 343° |
| 2026-05-08 11:28 | 24.91725 | 39.62874 | 14684 ft | 371 kts | 343° |
| 2026-05-08 11:28 | 24.94267 | 39.62237 | 15226 ft | 377 kts | 343° |
| 2026-05-08 11:29 | 24.96819 | 39.61605 | 16478 ft | 375 kts | 343° |
| 2026-05-08 11:29 | 24.99369 | 39.60978 | 17674 ft | 377 kts | 343° |
| 2026-05-08 11:29 | 25.01940 | 39.60346 | 18735 ft | 380 kts | 343° |
| 2026-05-08 11:29 | 25.04538 | 39.59706 | 19685 ft | 384 kts | 343° |
| 2026-05-08 11:30 | 25.07158 | 39.59061 | 20611 ft | 389 kts | 343° |
| 2026-05-08 11:30 | 25.09824 | 39.58403 | 21478 ft | 395 kts | 343° |
| 2026-05-08 11:30 | 25.12519 | 39.57740 | 22436 ft | 398 kts | 343° |
| 2026-05-08 11:30 | 25.15229 | 39.57071 | 23471 ft | 401 kts | 343° |
| 2026-05-08 11:31 | 25.17966 | 39.56398 | 24305 ft | 405 kts | 343° |
| 2026-05-08 11:31 | 25.20697 | 39.55725 | 25066 ft | 410 kts | 343° |
| 2026-05-08 11:31 | 25.23506 | 39.55032 | 25833 ft | 416 kts | 343° |
| 2026-05-08 11:31 | 25.26342 | 39.54332 | 26615 ft | 420 kts | 343° |
| 2026-05-08 11:32 | 25.29215 | 39.53623 | 27407 ft | 425 kts | 343° |
| 2026-05-08 11:32 | 25.32114 | 39.52907 | 28197 ft | 429 kts | 343° |
| 2026-05-08 11:32 | 25.35043 | 39.52184 | 28925 ft | 433 kts | 343° |
| 2026-05-08 11:32 | 25.38005 | 39.51456 | 29597 ft | 438 kts | 343° |
| 2026-05-08 11:33 | 25.41012 | 39.50748 | 30194 ft | 444 kts | 344° |
| 2026-05-08 11:33 | 25.44053 | 39.50048 | 30712 ft | 449 kts | 343° |
| 2026-05-08 11:33 | 25.47129 | 39.49343 | 31205 ft | 454 kts | 343° |
| 2026-05-08 11:33 | 25.50253 | 39.48719 | 31731 ft | 460 kts | 348° |
| 2026-05-08 11:34 | 25.53479 | 39.48607 | 32331 ft | 468 kts | 358° |
| 2026-05-08 11:34 | 25.56744 | 39.48977 | 32873 ft | 477 kts | 4° |
| 2026-05-08 11:34 | 25.60012 | 39.49808 | 33330 ft | 486 kts | 10° |
| 2026-05-08 11:34 | 25.63296 | 39.50791 | 33705 ft | 492 kts | 11° |
| 2026-05-08 11:35 | 25.66617 | 39.51808 | 34051 ft | 498 kts | 11° |
| 2026-05-08 11:35 | 25.69928 | 39.52822 | 34372 ft | 502 kts | 11° |
| 2026-05-08 11:35 | 25.73364 | 39.53815 | 34691 ft | 505 kts | 9° |
| 2026-05-08 11:35 | 25.76749 | 39.54706 | 34999 ft | 508 kts | 8° |
| 2026-05-08 11:36 | 25.80197 | 39.55607 | 35421 ft | 509 kts | 9° |
| 2026-05-08 11:36 | 25.83638 | 39.56537 | 35923 ft | 508 kts | 10° |
| 2026-05-08 11:36 | 25.87077 | 39.57502 | 36327 ft | 510 kts | 10° |
| 2026-05-08 11:36 | 25.90525 | 39.58500 | 36556 ft | 516 kts | 11° |
| 2026-05-08 11:37 | 25.94023 | 39.59529 | 36694 ft | 523 kts | 11° |
| 2026-05-08 11:37 | 25.97543 | 39.60578 | 37101 ft | 523 kts | 11° |
| 2026-05-08 11:37 | 26.01058 | 39.61632 | 37592 ft | 523 kts | 12° |
| 2026-05-08 11:37 | 26.04571 | 39.62685 | 38044 ft | 523 kts | 12° |
| 2026-05-08 11:38 | 26.08090 | 39.63738 | 38424 ft | 524 kts | 12° |
| 2026-05-08 11:38 | 26.11618 | 39.64792 | 38751 ft | 525 kts | 11° |
| 2026-05-08 11:38 | 26.15158 | 39.65847 | 38909 ft | 528 kts | 11° |
| 2026-05-08 11:39 | 26.22259 | 39.67964 | 38965 ft | 526 kts | 11° |
| 2026-05-08 11:39 | 26.29276 | 39.70060 | 38976 ft | 520 kts | 12° |
| 2026-05-08 11:40 | 26.36212 | 39.72133 | 38967 ft | 519 kts | 12° |
| 2026-05-08 11:40 | 26.43187 | 39.74219 | 38972 ft | 519 kts | 12° |
| 2026-05-08 11:41 | 26.50166 | 39.76310 | 38977 ft | 519 kts | 12° |
| 2026-05-08 11:41 | 26.57138 | 39.78402 | 38965 ft | 518 kts | 12° |
| 2026-05-08 11:42 | 26.64111 | 39.80497 | 38968 ft | 518 kts | 12° |
| 2026-05-08 11:42 | 26.71096 | 39.82596 | 38972 ft | 522 kts | 12° |
| 2026-05-08 11:43 | 26.78142 | 39.84718 | 38970 ft | 526 kts | 12° |
| 2026-05-08 11:43 | 26.85216 | 39.86851 | 38971 ft | 527 kts | 12° |
| 2026-05-08 11:44 | 26.92296 | 39.88990 | 38970 ft | 528 kts | 12° |
| 2026-05-08 11:44 | 26.99337 | 39.91120 | 38970 ft | 527 kts | 12° |
| 2026-05-08 11:45 | 27.06408 | 39.93261 | 38972 ft | 526 kts | 12° |
| 2026-05-08 11:45 | 27.13455 | 39.95397 | 38980 ft | 523 kts | 12° |
| 2026-05-08 11:46 | 27.20466 | 39.97526 | 38972 ft | 520 kts | 12° |
| 2026-05-08 11:46 | 27.27448 | 39.99647 | 38979 ft | 519 kts | 12° |
| 2026-05-08 11:47 | 27.34403 | 40.01764 | 38997 ft | 517 kts | 12° |
| 2026-05-08 11:47 | 27.41333 | 40.03876 | 38969 ft | 516 kts | 12° |
| 2026-05-08 11:48 | 27.48248 | 40.05984 | 38994 ft | 521 kts | 12° |
| 2026-05-08 11:48 | 27.55275 | 40.08133 | 39030 ft | 525 kts | 12° |
| 2026-05-08 11:48 | 27.58794 | 40.09219 | 39234 ft | 523 kts | 12° |
| 2026-05-08 11:49 | 27.62297 | 40.10304 | 39462 ft | 522 kts | 12° |
| 2026-05-08 11:49 | 27.65804 | 40.11386 | 39708 ft | 523 kts | 12° |
| 2026-05-08 11:49 | 27.69308 | 40.12461 | 40092 ft | 521 kts | 12° |
| 2026-05-08 11:49 | 27.72798 | 40.13531 | 40490 ft | 519 kts | 12° |
| 2026-05-08 11:50 | 27.76284 | 40.14599 | 40749 ft | 520 kts | 12° |
| 2026-05-08 11:50 | 27.79780 | 40.15670 | 40923 ft | 521 kts | 12° |
| 2026-05-08 11:50 | 27.83278 | 40.16744 | 40971 ft | 520 kts | 12° |
| 2026-05-08 11:51 | 27.90229 | 40.18883 | 41006 ft | 515 kts | 12° |
| 2026-05-08 11:51 | 27.97116 | 40.21004 | 41026 ft | 511 kts | 12° |
| 2026-05-08 11:52 | 28.03966 | 40.23116 | 41025 ft | 510 kts | 12° |
| 2026-05-08 11:52 | 28.10811 | 40.25228 | 41032 ft | 510 kts | 12° |
| 2026-05-08 11:53 | 28.17692 | 40.27352 | 41050 ft | 515 kts | 12° |
| 2026-05-08 11:53 | 28.24637 | 40.29499 | 41050 ft | 518 kts | 12° |
| 2026-05-08 11:54 | 28.31611 | 40.31662 | 41044 ft | 520 kts | 12° |
| 2026-05-08 11:54 | 28.38583 | 40.33828 | 41057 ft | 519 kts | 12° |
| 2026-05-08 11:55 | 28.45534 | 40.35990 | 41056 ft | 516 kts | 12° |
| 2026-05-08 11:55 | 28.52393 | 40.38125 | 41068 ft | 513 kts | 12° |
| 2026-05-08 11:56 | 28.59263 | 40.40266 | 41061 ft | 511 kts | 11° |
| 2026-05-08 11:56 | 28.65002 | 40.42055 | 41063 ft | 510 kts | 11° |
| 2026-05-08 11:57 | 28.71797 | 40.44178 | 41068 ft | 509 kts | 12° |
| 2026-05-08 11:57 | 28.78636 | 40.46317 | 41076 ft | 509 kts | 12° |
| 2026-05-08 11:58 | 28.85471 | 40.48457 | 41065 ft | 510 kts | 12° |
| 2026-05-08 11:58 | 28.92332 | 40.50608 | 41085 ft | 512 kts | 12° |
| 2026-05-08 11:59 | 29.02678 | 40.53859 | 41085 ft | 515 kts | 12° |
| 2026-05-08 11:59 | 29.09596 | 40.56037 | 41083 ft | 516 kts | 12° |
| 2026-05-08 12:00 | 29.16516 | 40.58218 | 41092 ft | 515 kts | 12° |
| 2026-05-08 12:00 | 29.23377 | 40.60385 | 41088 ft | 514 kts | 12° |
| 2026-05-08 12:01 | 29.30254 | 40.62559 | 41085 ft | 512 kts | 12° |
| 2026-05-08 12:01 | 29.37119 | 40.64732 | 41096 ft | 511 kts | 12° |
| 2026-05-08 12:02 | 29.43971 | 40.66903 | 41089 ft | 510 kts | 12° |
| 2026-05-08 12:02 | 29.50806 | 40.69072 | 41094 ft | 509 kts | 12° |
| 2026-05-08 12:03 | 29.57645 | 40.71246 | 41095 ft | 509 kts | 12° |
| 2026-05-08 12:03 | 29.64468 | 40.73417 | 41091 ft | 509 kts | 12° |
| 2026-05-08 12:04 | 29.71290 | 40.75592 | 41109 ft | 509 kts | 12° |
| 2026-05-08 12:04 | 29.78068 | 40.77756 | 41097 ft | 509 kts | 12° |
| 2026-05-08 12:05 | 29.84897 | 40.79938 | 41087 ft | 509 kts | 12° |
| 2026-05-08 12:05 | 29.91723 | 40.82123 | 41104 ft | 509 kts | 12° |
| 2026-05-08 12:06 | 29.98545 | 40.84310 | 41089 ft | 509 kts | 12° |
| 2026-05-08 12:06 | 30.05362 | 40.86499 | 41087 ft | 508 kts | 12° |
| 2026-05-08 12:07 | 30.12181 | 40.88691 | 41093 ft | 508 kts | 12° |
| 2026-05-08 12:07 | 30.18944 | 40.90868 | 41083 ft | 508 kts | 12° |
| 2026-05-08 12:08 | 30.25756 | 40.93064 | 41074 ft | 509 kts | 12° |
| 2026-05-08 12:08 | 30.32579 | 40.95267 | 41085 ft | 510 kts | 12° |
| 2026-05-08 12:09 | 30.39418 | 40.97478 | 41075 ft | 511 kts | 12° |
| 2026-05-08 12:09 | 30.46263 | 40.99695 | 41067 ft | 511 kts | 12° |
| 2026-05-08 12:10 | 30.53113 | 41.01916 | 41076 ft | 511 kts | 12° |
| 2026-05-08 12:10 | 30.59955 | 41.04139 | 41059 ft | 511 kts | 12° |
| 2026-05-08 12:11 | 30.66746 | 41.06348 | 41056 ft | 510 kts | 12° |
| 2026-05-08 12:11 | 30.73578 | 41.08574 | 41055 ft | 510 kts | 12° |
| 2026-05-08 12:12 | 30.80411 | 41.10803 | 41052 ft | 509 kts | 12° |
| 2026-05-08 12:12 | 30.87168 | 41.13215 | 41025 ft | 509 kts | 23° |
| 2026-05-08 12:13 | 30.90178 | 41.15431 | 41055 ft | 514 kts | 39° |
| 2026-05-08 12:13 | 30.92661 | 41.18424 | 41050 ft | 517 kts | 54° |
| 2026-05-08 12:13 | 30.94460 | 41.22027 | 41057 ft | 514 kts | 65° |
| 2026-05-08 12:13 | 30.96010 | 41.25789 | 41057 ft | 516 kts | 65° |
| 2026-05-08 12:14 | 30.99139 | 41.33348 | 41073 ft | 520 kts | 65° |
| 2026-05-08 12:14 | 31.02348 | 41.40878 | 41047 ft | 523 kts | 64° |
| 2026-05-08 12:15 | 31.05633 | 41.48478 | 41047 ft | 526 kts | 64° |
| 2026-05-08 12:15 | 31.08922 | 41.56099 | 41046 ft | 526 kts | 64° |
| 2026-05-08 12:16 | 31.12200 | 41.63725 | 41049 ft | 526 kts | 65° |
| 2026-05-08 12:16 | 31.15468 | 41.71351 | 41036 ft | 525 kts | 65° |
| 2026-05-08 12:17 | 31.18726 | 41.78970 | 41030 ft | 524 kts | 65° |
| 2026-05-08 12:17 | 31.21976 | 41.86573 | 41058 ft | 523 kts | 65° |
| 2026-05-08 12:18 | 31.25253 | 41.94174 | 41036 ft | 523 kts | 65° |
| 2026-05-08 12:18 | 31.27894 | 42.02005 | 41045 ft | 515 kts | 83° |
| 2026-05-08 12:19 | 31.28184 | 42.10219 | 41045 ft | 504 kts | 103° |
| 2026-05-08 12:19 | 31.27018 | 42.18279 | 41046 ft | 505 kts | 105° |
| 2026-05-08 12:20 | 31.25805 | 42.26389 | 41051 ft | 508 kts | 105° |
| 2026-05-08 12:20 | 31.24627 | 42.34552 | 41040 ft | 510 kts | 104° |
| 2026-05-08 12:21 | 31.23470 | 42.42742 | 41021 ft | 511 kts | 104° |
| 2026-05-08 12:21 | 31.22317 | 42.50930 | 41024 ft | 509 kts | 104° |
| 2026-05-08 12:22 | 31.21162 | 42.59078 | 41029 ft | 508 kts | 105° |
| 2026-05-08 12:22 | 31.20002 | 42.67200 | 41022 ft | 506 kts | 105° |
| 2026-05-08 12:23 | 31.18846 | 42.75241 | 41026 ft | 505 kts | 105° |
| 2026-05-08 12:23 | 31.17678 | 42.83325 | 41032 ft | 505 kts | 105° |
| 2026-05-08 12:24 | 31.16506 | 42.91402 | 41027 ft | 505 kts | 105° |
| 2026-05-08 12:24 | 31.15329 | 42.99480 | 41029 ft | 505 kts | 105° |
| 2026-05-08 12:25 | 31.14146 | 43.07569 | 41029 ft | 505 kts | 105° |
| 2026-05-08 12:25 | 31.12957 | 43.15659 | 41026 ft | 506 kts | 106° |
| 2026-05-08 12:26 | 31.11763 | 43.23745 | 41003 ft | 506 kts | 107° |
| 2026-05-08 12:26 | 31.10566 | 43.31824 | 41023 ft | 505 kts | 107° |
| 2026-05-08 12:27 | 31.09370 | 43.39849 | 41025 ft | 505 kts | 107° |
| 2026-05-08 12:27 | 31.08161 | 43.47928 | 41013 ft | 506 kts | 107° |
| 2026-05-08 12:28 | 31.06947 | 43.56008 | 41022 ft | 506 kts | 107° |
| 2026-05-08 12:28 | 31.05727 | 43.64091 | 41003 ft | 506 kts | 108° |
| 2026-05-08 12:29 | 31.04501 | 43.72183 | 41015 ft | 507 kts | 108° |
| 2026-05-08 12:29 | 31.03267 | 43.80281 | 41031 ft | 508 kts | 108° |
| 2026-05-08 12:30 | 31.02025 | 43.88395 | 41009 ft | 509 kts | 109° |
| 2026-05-08 12:30 | 31.00777 | 43.96528 | 41014 ft | 509 kts | 109° |
| 2026-05-08 12:31 | 30.99522 | 44.04666 | 40988 ft | 510 kts | 109° |
| 2026-05-08 12:31 | 30.98266 | 44.12768 | 41005 ft | 511 kts | 109° |
| 2026-05-08 12:32 | 30.96998 | 44.20922 | 41009 ft | 512 kts | 109° |
| 2026-05-08 12:32 | 30.95722 | 44.29089 | 40997 ft | 513 kts | 110° |
| 2026-05-08 12:33 | 30.94439 | 44.37266 | 41001 ft | 514 kts | 110° |
| 2026-05-08 12:33 | 30.93147 | 44.45464 | 40981 ft | 515 kts | 110° |
| 2026-05-08 12:34 | 30.91848 | 44.53672 | 40999 ft | 515 kts | 110° |
| 2026-05-08 12:34 | 30.90543 | 44.61881 | 40965 ft | 516 kts | 110° |
| 2026-05-08 12:35 | 30.89233 | 44.70096 | 40989 ft | 516 kts | 110° |
| 2026-05-08 12:35 | 30.87917 | 44.78302 | 40984 ft | 516 kts | 110° |
| 2026-05-08 12:36 | 30.86596 | 44.86511 | 40989 ft | 516 kts | 110° |
| 2026-05-08 12:36 | 30.85270 | 44.94714 | 40984 ft | 516 kts | 110° |
| 2026-05-08 12:37 | 30.83949 | 45.02856 | 40965 ft | 515 kts | 110° |
| 2026-05-08 12:37 | 30.82613 | 45.11051 | 40971 ft | 515 kts | 110° |
| 2026-05-08 12:38 | 30.81272 | 45.19241 | 40962 ft | 515 kts | 110° |
| 2026-05-08 12:38 | 30.79927 | 45.27427 | 40966 ft | 515 kts | 111° |
| 2026-05-08 12:39 | 30.78575 | 45.35619 | 40971 ft | 516 kts | 111° |
| 2026-05-08 12:39 | 30.77215 | 45.43821 | 40960 ft | 517 kts | 111° |
| 2026-05-08 12:40 | 30.75848 | 45.52035 | 40962 ft | 518 kts | 111° |
| 2026-05-08 12:40 | 30.74481 | 45.60236 | 40780 ft | 515 kts | 111° |
| 2026-05-08 12:41 | 30.73800 | 45.64314 | 40411 ft | 512 kts | 111° |
| 2026-05-08 12:41 | 30.73123 | 45.68363 | 39892 ft | 510 kts | 111° |
| 2026-05-08 12:41 | 30.72447 | 45.72393 | 39381 ft | 507 kts | 111° |
| 2026-05-08 12:41 | 30.71781 | 45.76352 | 38944 ft | 503 kts | 112° |
| 2026-05-08 12:42 | 30.71102 | 45.80378 | 38501 ft | 499 kts | 112° |
| 2026-05-08 12:42 | 30.70434 | 45.84325 | 37867 ft | 498 kts | 112° |
| 2026-05-08 12:42 | 30.69759 | 45.88258 | 37165 ft | 507 kts | 112° |
| 2026-05-08 12:42 | 30.69070 | 45.92270 | 36507 ft | 506 kts | 112° |
| 2026-05-08 12:43 | 30.68389 | 45.96272 | 35839 ft | 504 kts | 112° |
| 2026-05-08 12:43 | 30.67712 | 46.00256 | 35157 ft | 502 kts | 111° |
| 2026-05-08 12:43 | 30.67036 | 46.04230 | 34495 ft | 500 kts | 111° |
| 2026-05-08 12:43 | 30.66360 | 46.08187 | 33805 ft | 498 kts | 111° |
| 2026-05-08 12:44 | 30.65686 | 46.12125 | 32983 ft | 497 kts | 111° |
| 2026-05-08 12:44 | 30.65009 | 46.16057 | 32130 ft | 497 kts | 111° |
| 2026-05-08 12:44 | 30.64327 | 46.20002 | 31257 ft | 498 kts | 110° |
| 2026-05-08 12:44 | 30.63644 | 46.23951 | 30427 ft | 498 kts | 110° |
| 2026-05-08 12:45 | 30.62964 | 46.27889 | 29625 ft | 496 kts | 110° |
| 2026-05-08 12:45 | 30.62290 | 46.31795 | 28829 ft | 490 kts | 109° |
| 2026-05-08 12:45 | 30.61632 | 46.35607 | 28076 ft | 485 kts | 109° |
| 2026-05-08 12:45 | 30.60972 | 46.39421 | 27304 ft | 480 kts | 109° |
| 2026-05-08 12:46 | 30.60313 | 46.43205 | 26532 ft | 477 kts | 108° |
| 2026-05-08 12:46 | 30.59656 | 46.46969 | 25802 ft | 473 kts | 108° |
| 2026-05-08 12:46 | 30.59003 | 46.50699 | 25112 ft | 470 kts | 108° |
| 2026-05-08 12:46 | 30.58354 | 46.54400 | 24442 ft | 466 kts | 107° |
| 2026-05-08 12:47 | 30.57709 | 46.58075 | 23798 ft | 463 kts | 107° |
| 2026-05-08 12:47 | 30.57067 | 46.61727 | 23033 ft | 461 kts | 107° |
| 2026-05-08 12:47 | 30.56427 | 46.65361 | 22352 ft | 457 kts | 106° |
| 2026-05-08 12:47 | 30.55797 | 46.68941 | 21786 ft | 450 kts | 106° |
| 2026-05-08 12:48 | 30.55175 | 46.72475 | 21241 ft | 443 kts | 106° |
| 2026-05-08 12:48 | 30.54560 | 46.75958 | 20682 ft | 438 kts | 105° |
| 2026-05-08 12:48 | 30.53950 | 46.79401 | 20117 ft | 433 kts | 105° |
| 2026-05-08 12:48 | 30.53345 | 46.82808 | 19564 ft | 429 kts | 105° |
| 2026-05-08 12:49 | 30.52746 | 46.86175 | 19036 ft | 424 kts | 105° |
| 2026-05-08 12:49 | 30.52160 | 46.89463 | 18534 ft | 419 kts | 105° |
| 2026-05-08 12:49 | 30.51573 | 46.92756 | 18005 ft | 415 kts | 104° |
| 2026-05-08 12:49 | 30.50993 | 46.96019 | 17425 ft | 411 kts | 104° |
| 2026-05-08 12:50 | 30.50430 | 46.99257 | 16830 ft | 403 kts | 104° |
| 2026-05-08 12:50 | 30.49888 | 47.02396 | 15873 ft | 395 kts | 104° |
| 2026-05-08 12:50 | 30.49338 | 47.05561 | 15094 ft | 402 kts | 104° |
| 2026-05-08 12:50 | 30.48781 | 47.08738 | 14526 ft | 401 kts | 104° |
| 2026-05-08 12:51 | 30.48224 | 47.11886 | 14074 ft | 396 kts | 104° |
| 2026-05-08 12:51 | 30.47306 | 47.17037 | 13245 ft | 390 kts | 104° |
| 2026-05-08 12:51 | 30.46575 | 47.21139 | 12551 ft | 386 kts | 104° |
| 2026-05-08 12:52 | 30.46218 | 47.23149 | 12206 ft | 383 kts | 104° |
| 2026-05-08 12:52 | 30.45159 | 47.29152 | 11223 ft | 376 kts | 104° |
| 2026-05-08 12:52 | 30.44636 | 47.32107 | 10740 ft | 373 kts | 104° |
| 2026-05-08 12:53 | 30.44119 | 47.35017 | 10477 ft | 358 kts | 104° |
| 2026-05-08 12:53 | 30.43647 | 47.37724 | 10258 ft | 329 kts | 104° |
| 2026-05-08 12:53 | 30.43206 | 47.40263 | 9903 ft | 315 kts | 105° |
| 2026-05-08 12:53 | 30.42595 | 47.42673 | 9591 ft | 309 kts | 112° |
| 2026-05-08 12:54 | 30.41858 | 47.44985 | 9333 ft | 303 kts | 114° |
| 2026-05-08 12:54 | 30.41106 | 47.47264 | 8962 ft | 302 kts | 114° |
| 2026-05-08 12:54 | 30.40361 | 47.49506 | 8586 ft | 302 kts | 114° |
| 2026-05-08 12:54 | 30.39604 | 47.51767 | 8281 ft | 299 kts | 114° |
| 2026-05-08 12:55 | 30.38809 | 47.53967 | 7867 ft | 294 kts | 121° |
| 2026-05-08 12:55 | 30.37667 | 47.55915 | 7450 ft | 293 kts | 131° |
| 2026-05-08 12:55 | 30.36363 | 47.57725 | 7085 ft | 292 kts | 134° |
| 2026-05-08 12:55 | 30.35045 | 47.59518 | 6724 ft | 292 kts | 133° |
| 2026-05-08 12:56 | 30.33725 | 47.61270 | 6573 ft | 284 kts | 134° |
| 2026-05-08 12:56 | 30.32377 | 47.62890 | 6451 ft | 274 kts | 137° |
| 2026-05-08 12:56 | 30.31022 | 47.64386 | 6382 ft | 263 kts | 139° |
| 2026-05-08 12:56 | 30.29713 | 47.65817 | 6277 ft | 254 kts | 139° |
| 2026-05-08 12:57 | 30.28448 | 47.67204 | 6163 ft | 246 kts | 138° |
| 2026-05-08 12:57 | 30.27234 | 47.68531 | 6109 ft | 234 kts | 139° |
| 2026-05-08 12:57 | 30.26137 | 47.69854 | 5976 ft | 225 kts | 129° |
| 2026-05-08 12:57 | 30.25430 | 47.71443 | 5766 ft | 221 kts | 106° |
| 2026-05-08 12:58 | 30.25340 | 47.73202 | 5488 ft | 219 kts | 79° |
| 2026-05-08 12:58 | 30.25920 | 47.74764 | 5262 ft | 214 kts | 52° |
| 2026-05-08 12:58 | 30.27036 | 47.75866 | 5012 ft | 209 kts | 28° |
| 2026-05-08 12:58 | 30.28329 | 47.76636 | 4781 ft | 210 kts | 25° |
| 2026-05-08 12:59 | 30.29646 | 47.77365 | 4540 ft | 209 kts | 24° |
| 2026-05-08 12:59 | 30.30943 | 47.78087 | 4315 ft | 205 kts | 24° |
| 2026-05-08 12:59 | 30.32191 | 47.78800 | 4081 ft | 195 kts | 22° |
| 2026-05-08 12:59 | 30.33423 | 47.79394 | 3809 ft | 188 kts | 12° |
| 2026-05-08 13:00 | 30.34677 | 47.79697 | 3508 ft | 185 kts | 4° |
| 2026-05-08 13:00 | 30.35958 | 47.79898 | 3231 ft | 187 kts | 5° |
| 2026-05-08 13:00 | 30.37271 | 47.80085 | 2903 ft | 192 kts | 4° |
| 2026-05-08 13:00 | 30.38592 | 47.80288 | 2651 ft | 191 kts | 4° |
| 2026-05-08 13:01 | 30.39886 | 47.80505 | 2503 ft | 185 kts | 4° |
| 2026-05-08 13:01 | 30.41103 | 47.80440 | 2350 ft | 171 kts | 333° |
| 2026-05-08 13:01 | 30.42046 | 47.79631 | 2247 ft | 172 kts | 319° |
| 2026-05-08 13:01 | 30.42970 | 47.78728 | 2141 ft | 172 kts | 319° |
| 2026-05-08 13:02 | 30.43857 | 47.77824 | 2022 ft | 168 kts | 317° |
| 2026-05-08 13:02 | 30.44690 | 47.76954 | 1953 ft | 154 kts | 316° |
| 2026-05-08 13:02 | 30.45496 | 47.76107 | 1918 ft | 156 kts | 316° |
| 2026-05-08 13:02 | 30.46281 | 47.75284 | 1848 ft | 146 kts | 316° |
| 2026-05-08 13:03 | 30.47004 | 47.74523 | 1673 ft | 134 kts | 316° |
| 2026-05-08 13:03 | 30.47667 | 47.73825 | 1537 ft | 127 kts | 316° |
| 2026-05-08 13:03 | 30.48319 | 47.73138 | 1364 ft | 125 kts | 315° |
| 2026-05-08 13:03 | 30.48961 | 47.72461 | 1213 ft | 124 kts | 315° |
| 2026-05-08 13:04 | 30.49588 | 47.71803 | 1043 ft | 124 kts | 315° |
| 2026-05-08 13:04 | 30.50242 | 47.71116 | 898 ft | 127 kts | 315° |
| 2026-05-08 13:04 | 30.50889 | 47.70430 | 722 ft | 129 kts | 315° |
| 2026-05-08 13:04 | 30.51546 | 47.69739 | 576 ft | 126 kts | 315° |
| 2026-05-08 13:05 | 30.52180 | 47.69069 | 415 ft | 121 kts | 316° |
| 2026-05-08 13:05 | 30.52823 | 47.68400 | 287 ft | 124 kts | 317° |
| 2026-05-08 13:05 | 30.53457 | 47.67738 | 120 ft | 121 kts | 318° |
| 2026-05-08 13:05 | 30.54044 | 47.67120 | 52 ft | 101 kts | 318° |
| 2026-05-08 13:06 | 30.54469 | 47.66676 | 47 ft | 69 kts | 318° |
| 2026-05-08 13:06 | 30.54738 | 47.66394 | 49 ft | 33 kts | 318° |
| 2026-05-08 13:06 | 30.54878 | 47.66248 | 48 ft | 21 kts | 320° |
| 2026-05-08 13:06 | 30.54978 | 47.66174 | 51 ft | 12 kts | 335° |
| 2026-05-08 13:07 | 30.55045 | 47.66148 | 47 ft | 10 kts | 346° |
| 2026-05-08 13:07 | 30.55112 | 47.66131 | 52 ft | 10 kts | 347° |
| 2026-05-08 13:07 | 30.55177 | 47.66113 | 51 ft | 8 kts | 347° |
| 2026-05-08 13:07 | 30.55226 | 47.66116 | 48 ft | 7 kts | 25° |
| 2026-05-08 13:08 | 30.55262 | 47.66155 | 51 ft | 7 kts | 47° |
| 2026-05-08 13:08 | 30.55306 | 47.66209 | 48 ft | 10 kts | 46° |
| 2026-05-08 13:08 | 30.55355 | 47.66270 | 51 ft | 10 kts | 48° |
| 2026-05-08 13:08 | 30.55400 | 47.66329 | 51 ft | 7 kts | 48° |
| 2026-05-08 13:09 | 30.55423 | 47.66374 | 51 ft | 7 kts | 81° |
| 2026-05-08 13:09 | 30.55403 | 47.66420 | 50 ft | 7 kts | 136° |
| 2026-05-08 13:09 | 30.55363 | 47.66461 | 51 ft | 10 kts | 137° |
| 2026-05-08 13:09 | 30.55311 | 47.66515 | 49 ft | 10 kts | 138° |
| 2026-05-08 13:10 | 30.55260 | 47.66569 | 48 ft | 10 kts | 137° |
| 2026-05-08 13:10 | 30.55209 | 47.66624 | 49 ft | 10 kts | 137° |
| 2026-05-08 13:10 | 30.55158 | 47.66678 | 51 ft | 10 kts | 137° |
| 2026-05-08 13:10 | 30.55106 | 47.66732 | 51 ft | 10 kts | 138° |
| 2026-05-08 13:11 | 30.55054 | 47.66785 | 49 ft | 10 kts | 138° |
| 2026-05-08 13:11 | 30.55016 | 47.66825 | 51 ft | 5 kts | 137° |
| 2026-05-08 13:11 | 30.55012 | 47.66860 | 51 ft | 5 kts | 72° |
| 2026-05-08 13:11 | 30.55033 | 47.66891 | 50 ft | 4 kts | 47° |
| 2026-05-08 13:12 | 30.55046 | 47.66907 | 51 ft | 2 kts | 46° |
| 2026-05-08 13:12 | 30.55054 | 47.66917 | 51 ft | 1 kts | 47° |
| 2026-05-08 13:12 | 30.55057 | 47.66921 | 51 ft | 0 kts | 47° |